Time,TemperatureF,DewpointF,PressureIn,WindDirection,WindDirectionDegrees,WindSpeedMPH,WindSpeedGustMPH,Humidity,HourlyPrecipIn,Conditions,Clouds,dailyrainin,SoftwareType,DateUTC
2013-02-04 00:22:00,32.0,28.0,29.88,West,271,3.0,9.0,85,0.00,,,0.02,,2013-02-04 05:22:00,
2013-02-04 00:33:00,32.0,28.0,29.88,West,271,3.0,9.0,85,0.00,,,0.02,,2013-02-04 05:33:00,
2013-02-04 00:42:00,32.0,28.0,29.88,West,271,3.0,9.0,85,0.00,,,0.02,,2013-02-04 05:42:00,
2013-02-04 00:52:00,33.0,28.0,29.89,WNW,300,16.0,26.0,83,0.00,,,0.02,,2013-02-04 05:52:00,
2013-02-04 01:02:00,33.0,28.0,29.89,WNW,300,16.0,26.0,83,0.00,,,0.02,,2013-02-04 06:02:00,
2013-02-04 01:11:00,33.0,28.0,29.89,WNW,300,16.0,26.0,83,0.00,,,0.02,,2013-02-04 06:11:00,
2013-02-04 01:21:00,31.0,24.0,29.90,WNW,298,6.0,28.0,74,0.00,,,0.02,,2013-02-04 06:21:00,
2013-02-04 01:32:00,31.0,24.0,29.90,WNW,298,6.0,28.0,74,0.00,,,0.02,,2013-02-04 06:32:00,
2013-02-04 01:42:00,31.0,24.0,29.90,WNW,298,6.0,28.0,74,0.00,,,0.02,,2013-02-04 06:42:00,
2013-02-04 01:52:00,31.0,21.0,29.91,West,278,13.0,24.0,67,0.00,,,0.02,,2013-02-04 06:52:00,
2013-02-04 02:02:00,31.0,21.0,29.91,West,278,13.0,24.0,67,0.00,,,0.02,,2013-02-04 07:02:00,
2013-02-04 02:11:00,31.0,21.0,29.91,West,278,13.0,24.0,67,0.00,,,0.02,,2013-02-04 07:11:00,
2013-02-04 02:21:00,30.0,22.0,29.93,NW,316,10.0,20.0,71,0.00,,,0.02,,2013-02-04 07:21:00,
2013-02-04 02:32:00,30.0,22.0,29.93,NW,316,10.0,20.0,71,0.00,,,0.02,,2013-02-04 07:32:00,
2013-02-04 02:42:00,30.0,22.0,29.93,NW,316,10.0,20.0,71,0.00,,,0.02,,2013-02-04 07:42:00,
2013-02-04 02:52:00,29.0,20.0,29.95,NNW,329,8.0,18.0,69,0.00,,,0.02,,2013-02-04 07:52:00,
2013-02-04 03:01:00,29.0,20.0,29.95,NNW,329,8.0,18.0,69,0.00,,,0.02,,2013-02-04 08:01:00,
2013-02-04 03:11:00,29.0,20.0,29.95,NNW,329,8.0,18.0,69,0.00,,,0.02,,2013-02-04 08:11:00,
2013-02-04 03:21:00,28.0,17.0,29.95,WNW,300,8.0,18.0,62,0.00,,,0.02,,2013-02-04 08:21:00,
2013-02-04 03:32:00,28.0,17.0,29.95,WNW,300,8.0,18.0,62,0.00,,,0.02,,2013-02-04 08:32:00,
2013-02-04 03:42:00,28.0,17.0,29.95,WNW,300,8.0,18.0,62,0.00,,,0.02,,2013-02-04 08:42:00,
2013-02-04 03:52:00,27.0,16.0,29.96,WNW,300,7.0,18.0,62,0.00,,,0.02,,2013-02-04 08:52:00,
2013-02-04 04:02:00,27.0,16.0,29.96,WNW,300,7.0,18.0,62,0.00,,,0.02,,2013-02-04 09:02:00,
2013-02-04 04:11:00,27.0,16.0,29.96,WNW,300,7.0,18.0,62,0.00,,,0.02,,2013-02-04 09:11:00,
2013-02-04 04:21:00,27.0,16.0,29.96,WNW,300,7.0,18.0,62,0.00,,,0.02,,2013-02-04 09:21:00,
2013-02-04 04:52:00,26.0,16.0,29.98,WNW,295,1.0,12.0,65,0.00,,,0.02,,2013-02-04 09:52:00,
2013-02-04 05:02:00,26.0,16.0,29.98,WNW,295,1.0,12.0,65,0.00,,,0.02,,2013-02-04 10:02:00,
2013-02-04 05:12:00,26.0,16.0,29.98,WNW,295,1.0,12.0,65,0.00,,,0.02,,2013-02-04 10:12:00,
2013-02-04 05:21:00,26.0,16.0,29.99,NNW,328,6.0,14.0,65,0.00,,,0.02,,2013-02-04 10:21:00,
2013-02-04 05:32:00,26.0,16.0,29.99,NNW,328,6.0,14.0,65,0.00,,,0.02,,2013-02-04 10:32:00,
2013-02-04 05:42:00,26.0,16.0,29.99,NNW,328,6.0,14.0,65,0.00,,,0.02,,2013-02-04 10:42:00,
2013-02-04 05:52:00,25.0,16.0,30.01,NW,316,2.0,12.0,67,0.00,,,0.02,,2013-02-04 10:52:00,
2013-02-04 06:02:00,25.0,16.0,30.01,NW,316,2.0,12.0,67,0.00,,,0.02,,2013-02-04 11:02:00,
2013-02-04 06:11:00,25.0,16.0,30.01,NW,316,2.0,12.0,67,0.00,,,0.02,,2013-02-04 11:11:00,
2013-02-04 06:22:00,24.0,15.0,30.01,WNW,287,3.0,11.0,68,0.00,,,0.02,,2013-02-04 11:22:00,
2013-02-04 06:32:00,24.0,15.0,30.01,WNW,287,3.0,11.0,68,0.00,,,0.02,,2013-02-04 11:32:00,
2013-02-04 06:42:00,24.0,15.0,30.01,WNW,287,3.0,11.0,68,0.00,,,0.02,,2013-02-04 11:42:00,
2013-02-04 06:52:00,24.0,15.0,30.03,NW,309,3.0,5.0,69,0.00,,,0.02,,2013-02-04 11:52:00,
2013-02-04 07:02:00,24.0,15.0,30.03,NW,309,3.0,5.0,69,0.00,,,0.02,,2013-02-04 12:02:00,
2013-02-04 07:12:00,24.0,15.0,30.03,NW,309,3.0,5.0,69,0.00,,,0.02,,2013-02-04 12:12:00,
2013-02-04 07:22:00,24.0,16.0,30.04,WSW,240,1.0,9.0,70,0.00,,,0.02,,2013-02-04 12:22:00,
2013-02-04 07:32:00,24.0,16.0,30.04,WSW,240,1.0,9.0,70,0.00,,,0.02,,2013-02-04 12:32:00,
2013-02-04 07:42:00,24.0,16.0,30.04,WSW,240,1.0,9.0,70,0.00,,,0.02,,2013-02-04 12:42:00,
2013-02-04 07:53:00,24.0,16.0,30.06,WNW,287,1.0,7.0,71,0.00,,,0.02,,2013-02-04 12:53:00,
2013-02-04 08:03:00,24.0,16.0,30.06,WNW,287,1.0,7.0,71,0.00,,,0.02,,2013-02-04 13:03:00,
2013-02-04 08:12:00,26.0,17.0,30.08,West,267,5.0,13.0,68,0.00,,,0.02,,2013-02-04 13:12:00,
2013-02-04 08:22:00,26.0,17.0,30.08,West,267,5.0,13.0,68,0.00,,,0.02,,2013-02-04 13:22:00,
2013-02-04 08:33:00,26.0,17.0,30.08,West,267,5.0,13.0,68,0.00,,,0.02,,2013-02-04 13:33:00,
2013-02-04 08:42:00,26.0,17.0,30.08,West,267,5.0,13.0,68,0.00,,,0.02,,2013-02-04 13:42:00,
2013-02-04 08:52:00,27.0,16.0,30.09,West,264,6.0,15.0,63,0.00,,,0.02,,2013-02-04 13:52:00,
2013-02-04 09:03:00,27.0,16.0,30.09,West,264,6.0,15.0,63,0.00,,,0.02,,2013-02-04 14:03:00,
2013-02-04 09:12:00,27.0,16.0,30.09,West,264,6.0,15.0,63,0.00,,,0.02,,2013-02-04 14:12:00,
2013-02-04 09:23:00,28.0,15.0,30.09,West,277,12.0,17.0,58,0.00,,,0.02,,2013-02-04 14:23:00,
2013-02-04 09:33:00,28.0,15.0,30.09,West,277,12.0,17.0,58,0.00,,,0.02,,2013-02-04 14:33:00,
2013-02-04 09:42:00,28.0,15.0,30.09,West,277,12.0,17.0,58,0.00,,,0.02,,2013-02-04 14:42:00,
2013-02-04 09:52:00,29.0,16.0,30.09,WNW,284,10.0,17.0,59,0.00,,,0.02,,2013-02-04 14:52:00,
2013-02-04 10:03:00,29.0,16.0,30.09,WNW,284,10.0,17.0,59,0.00,,,0.02,,2013-02-04 15:03:00,
2013-02-04 10:13:00,29.0,16.0,30.09,WNW,284,10.0,17.0,59,0.00,,,0.02,,2013-02-04 15:13:00,
2013-02-04 10:24:00,29.0,16.0,30.08,West,276,9.0,17.0,57,0.00,,,0.02,,2013-02-04 15:24:00,
2013-02-04 10:33:00,29.0,16.0,30.08,West,276,9.0,17.0,57,0.00,,,0.02,,2013-02-04 15:33:00,
2013-02-04 10:43:00,29.0,16.0,30.08,West,276,9.0,17.0,57,0.00,,,0.02,,2013-02-04 15:43:00,
2013-02-04 10:53:00,29.0,15.0,30.08,NNW,347,5.0,19.0,56,0.00,,,0.02,,2013-02-04 15:53:00,
2013-02-04 11:03:00,29.0,15.0,30.08,NNW,347,5.0,19.0,56,0.00,,,0.02,,2013-02-04 16:03:00,
2013-02-04 11:11:00,29.0,15.0,30.08,NNW,347,5.0,19.0,56,0.00,,,0.02,,2013-02-04 16:11:00,
2013-02-04 11:23:00,29.0,15.0,30.08,WNW,287,12.0,22.0,55,0.00,,,0.02,,2013-02-04 16:23:00,
2013-02-04 11:33:00,29.0,15.0,30.08,WNW,287,12.0,22.0,55,0.00,,,0.02,,2013-02-04 16:33:00,
2013-02-04 11:43:00,29.0,15.0,30.08,WNW,287,12.0,22.0,55,0.00,,,0.02,,2013-02-04 16:43:00,
2013-02-04 11:52:00,29.0,14.0,30.07,WSW,246,19.0,22.0,54,0.00,,,0.02,,2013-02-04 16:52:00,
2013-02-04 12:02:00,29.0,14.0,30.07,WSW,246,19.0,22.0,54,0.00,,,0.02,,2013-02-04 17:02:00,
2013-02-04 12:12:00,29.0,14.0,30.07,WSW,246,19.0,22.0,54,0.00,,,0.02,,2013-02-04 17:12:00,
2013-02-04 12:21:00,29.0,15.0,30.05,WNW,287,11.0,24.0,55,0.00,,,0.02,,2013-02-04 17:21:00,
2013-02-04 12:32:00,29.0,15.0,30.05,WNW,287,11.0,24.0,55,0.00,,,0.02,,2013-02-04 17:32:00,
2013-02-04 12:42:00,29.0,15.0,30.05,WNW,287,11.0,24.0,55,0.00,,,0.02,,2013-02-04 17:42:00,
2013-02-04 12:52:00,29.0,15.0,30.04,West,276,9.0,22.0,55,0.00,,,0.02,,2013-02-04 17:52:00,
2013-02-04 13:03:00,29.0,15.0,30.04,West,276,9.0,22.0,55,0.00,,,0.02,,2013-02-04 18:03:00,
2013-02-04 13:11:00,29.0,15.0,30.04,West,276,9.0,22.0,55,0.00,,,0.02,,2013-02-04 18:11:00,
2013-02-04 13:22:00,30.0,16.0,30.02,West,280,11.0,27.0,55,0.00,,,0.01,,2013-02-04 18:22:00,
2013-02-04 13:32:00,30.0,16.0,30.02,West,280,11.0,27.0,55,0.00,,,0.01,,2013-02-04 18:32:00,
2013-02-04 13:42:00,30.0,16.0,30.02,West,280,11.0,27.0,55,0.00,,,0.01,,2013-02-04 18:42:00,
2013-02-04 13:52:00,30.0,16.0,30.01,WSW,241,14.0,20.0,55,0.00,,,0.00,,2013-02-04 18:52:00,
2013-02-04 14:02:00,30.0,16.0,30.01,WSW,241,14.0,20.0,55,0.00,,,0.00,,2013-02-04 19:02:00,
2013-02-04 14:12:00,30.0,16.0,30.01,WSW,241,14.0,20.0,55,0.00,,,0.00,,2013-02-04 19:12:00,
2013-02-04 14:22:00,31.0,17.0,30.01,WSW,250,11.0,19.0,55,0.00,,,0.00,,2013-02-04 19:22:00,
2013-02-04 14:32:00,31.0,17.0,30.01,WSW,250,11.0,19.0,55,0.00,,,0.00,,2013-02-04 19:32:00,
2013-02-04 14:42:00,31.0,17.0,30.01,WSW,250,11.0,19.0,55,0.00,,,0.00,,2013-02-04 19:42:00,
2013-02-04 14:52:00,31.0,18.0,30.01,West,264,16.0,20.0,57,0.00,,,0.00,,2013-02-04 19:52:00,
2013-02-04 15:02:00,31.0,18.0,30.01,West,264,16.0,20.0,57,0.00,,,0.00,,2013-02-04 20:02:00,
2013-02-04 15:12:00,31.0,18.0,30.01,West,264,16.0,20.0,57,0.00,,,0.00,,2013-02-04 20:12:00,
2013-02-04 15:22:00,31.0,18.0,30.01,West,270,7.0,19.0,57,0.00,,,0.00,,2013-02-04 20:22:00,
2013-02-04 15:32:00,31.0,18.0,30.01,West,270,7.0,19.0,57,0.00,,,0.00,,2013-02-04 20:32:00,
2013-02-04 15:42:00,31.0,18.0,30.01,West,270,7.0,19.0,57,0.00,,,0.00,,2013-02-04 20:42:00,
2013-02-04 15:52:00,31.0,18.0,30.01,NNW,337,9.0,19.0,57,0.00,,,0.00,,2013-02-04 20:52:00,
2013-02-04 16:03:00,31.0,18.0,30.01,NNW,337,9.0,19.0,57,0.00,,,0.00,,2013-02-04 21:03:00,
2013-02-04 16:12:00,31.0,18.0,30.01,NNW,337,9.0,19.0,57,0.00,,,0.00,,2013-02-04 21:12:00,
2013-02-04 16:22:00,32.0,19.0,30.01,WSW,249,4.0,17.0,59,0.00,,,0.00,,2013-02-04 21:22:00,
2013-02-04 16:32:00,32.0,19.0,30.01,WSW,249,4.0,17.0,59,0.00,,,0.00,,2013-02-04 21:32:00,
2013-02-04 16:43:00,32.0,19.0,30.01,WSW,249,4.0,17.0,59,0.00,,,0.00,,2013-02-04 21:43:00,
2013-02-04 16:52:00,32.0,20.0,30.02,West,276,6.0,13.0,60,0.00,,,0.00,,2013-02-04 21:52:00,
2013-02-04 17:03:00,32.0,20.0,30.02,West,276,6.0,13.0,60,0.00,,,0.00,,2013-02-04 22:03:00,
2013-02-04 17:12:00,32.0,20.0,30.02,West,276,6.0,13.0,60,0.00,,,0.00,,2013-02-04 22:12:00,
2013-02-04 17:21:00,32.0,20.0,30.02,WSW,250,4.0,13.0,60,0.00,,,0.00,,2013-02-04 22:21:00,
2013-02-04 17:32:00,32.0,20.0,30.02,WSW,250,4.0,13.0,60,0.00,,,0.00,,2013-02-04 22:32:00,
2013-02-04 17:42:00,32.0,20.0,30.02,WSW,250,4.0,13.0,60,0.00,,,0.00,,2013-02-04 22:42:00,
2013-02-04 17:52:00,31.0,21.0,30.01,WNW,283,2.0,10.0,65,0.00,,,0.00,,2013-02-04 22:52:00,
2013-02-04 18:01:00,31.0,21.0,30.01,WNW,283,2.0,10.0,65,0.00,,,0.00,,2013-02-04 23:01:00,
2013-02-04 18:11:00,31.0,21.0,30.01,WNW,283,2.0,10.0,65,0.00,,,0.00,,2013-02-04 23:11:00,
2013-02-04 18:22:00,31.0,21.0,30.01,West,265,1.0,6.0,66,0.00,,,0.00,,2013-02-04 23:22:00,
2013-02-04 18:32:00,31.0,21.0,30.01,West,265,1.0,6.0,66,0.00,,,0.00,,2013-02-04 23:32:00,
2013-02-04 18:42:00,31.0,21.0,30.01,West,265,1.0,6.0,66,0.00,,,0.00,,2013-02-04 23:42:00,
2013-02-04 18:52:00,30.0,21.0,30.02,WSW,258,1.0,6.0,69,0.00,,,0.00,,2013-02-04 23:52:00,
2013-02-04 19:02:00,30.0,21.0,30.02,WSW,258,1.0,6.0,69,0.00,,,0.00,,2013-02-05 00:02:00,
2013-02-04 19:12:00,30.0,21.0,30.02,WSW,258,1.0,6.0,69,0.00,,,0.00,,2013-02-05 00:12:00,
2013-02-04 19:22:00,30.0,20.0,30.02,West,262,0.0,4.0,67,0.00,,,0.00,,2013-02-05 00:22:00,
2013-02-04 19:32:00,30.0,20.0,30.02,West,262,0.0,4.0,67,0.00,,,0.00,,2013-02-05 00:32:00,
2013-02-04 19:42:00,30.0,20.0,30.02,West,262,0.0,4.0,67,0.00,,,0.00,,2013-02-05 00:42:00,
2013-02-04 19:52:00,31.0,21.0,30.02,SW,229,0.0,3.0,67,0.00,,,0.00,,2013-02-05 00:52:00,
2013-02-04 20:02:00,31.0,21.0,30.02,SW,229,0.0,3.0,67,0.00,,,0.00,,2013-02-05 01:02:00,
2013-02-04 20:12:00,31.0,21.0,30.02,SW,229,0.0,3.0,67,0.00,,,0.00,,2013-02-05 01:12:00,
2013-02-04 20:22:00,31.0,21.0,30.02,SW,229,0.0,3.0,67,0.00,,,0.00,,2013-02-05 01:22:00,
2013-02-04 20:52:00,33.0,21.0,30.01,SW,226,3.0,6.0,62,0.00,,,0.00,,2013-02-05 01:52:00,
2013-02-04 21:02:00,33.0,21.0,30.01,SW,226,3.0,6.0,62,0.00,,,0.00,,2013-02-05 02:02:00,
2013-02-04 21:11:00,33.0,21.0,30.01,SW,226,3.0,6.0,62,0.00,,,0.00,,2013-02-05 02:11:00,
2013-02-04 21:22:00,33.0,21.0,30.01,SW,219,2.0,7.0,62,0.00,,,0.00,,2013-02-05 02:22:00,
2013-02-04 21:32:00,33.0,21.0,30.01,SW,219,2.0,7.0,62,0.00,,,0.00,,2013-02-05 02:32:00,
2013-02-04 21:42:00,33.0,21.0,30.01,SW,219,2.0,7.0,62,0.00,,,0.00,,2013-02-05 02:42:00,
2013-02-04 21:52:00,33.0,21.0,29.99,SSE,150,0.0,7.0,62,0.00,,,0.00,,2013-02-05 02:52:00,
2013-02-04 22:02:00,33.0,21.0,29.99,SSE,150,0.0,7.0,62,0.00,,,0.00,,2013-02-05 03:02:00,
2013-02-04 22:11:00,33.0,21.0,29.99,SSE,150,0.0,7.0,62,0.00,,,0.00,,2013-02-05 03:11:00,
2013-02-04 22:21:00,34.0,24.0,29.99,WSW,255,2.0,5.0,66,0.00,,,0.00,,2013-02-05 03:21:00,
2013-02-04 22:32:00,34.0,24.0,29.99,WSW,255,2.0,5.0,66,0.00,,,0.00,,2013-02-05 03:32:00,
2013-02-04 22:42:00,34.0,24.0,29.99,WSW,255,2.0,5.0,66,0.00,,,0.00,,2013-02-05 03:42:00,
2013-02-04 22:52:00,35.0,25.0,29.99,SSW,207,1.0,5.0,67,0.00,,,0.00,,2013-02-05 03:52:00,
2013-02-04 23:01:00,35.0,25.0,29.99,SSW,207,1.0,5.0,67,0.00,,,0.00,,2013-02-05 04:01:00,
2013-02-04 23:11:00,35.0,25.0,29.99,SSW,207,1.0,5.0,67,0.00,,,0.00,,2013-02-05 04:11:00,
2013-02-04 23:22:00,36.0,26.0,29.98,SSW,194,2.0,3.0,68,0.00,,,0.00,,2013-02-05 04:22:00,
2013-02-04 23:32:00,36.0,26.0,29.98,SSW,194,2.0,3.0,68,0.00,,,0.00,,2013-02-05 04:32:00,
2013-02-04 23:42:00,36.0,26.0,29.98,SSW,194,2.0,3.0,68,0.00,,,0.00,,2013-02-05 04:42:00,
2013-02-04 23:52:00,35.0,26.0,29.98,NW,315,0.0,4.0,70,0.00,,,0.00,,2013-02-05 04:52:00,